Scroll down
FLIGHT INFORMATION
Cargolux Airlines International

CLX2348

At Arrival Gate

SEQM
 KMIA
DATE: 2020-07-23
GATE: 
GATE DEPARTURE: 14:42
TAKEOFF: 14:56
DATE: 2020-07-23
GATE:  -
LANDING: 18:29
GATE ARRIVAL: 18:36
FLIGHT DATA
Crew: 
Speed: 
507 kts
Altitude: 
38,016 ft
Stage Length: 
1,560.2 nm
Block Time: 
3.9 hrs
Flight Time: 
3.6 hrs
Fuel Used: 
73,569 lb
Cleared Route: SEQM QM021 NEGAL ENSOL TCO TOKUT MILAT TBG ARNAL EMASA GCM ATUVI UCL XOPLI IKBIX PEAKY DVALL KMIA
TRACK DATA
50,000 ft 1,000 kts
AIRCRAFT INFO AND CUMULATIVE STATS
Aircraft Type: 
B748F
Registration: 
SELCAL: 
GRAB
MSN/LN: 
35808 / 1420
Total Flights: 
3
Total Block Time: 
15.8 hrs
Total Flight Time: 
14.9 hrs
Total Fuel Time: 
314,408 lb
DATALINK LOG | Newest first | Current as of: 2020-11-25 19:09:14
LABEL SEQUENCE CONTENT Dn/Up
QD383518:36 62.8▼ Dn
QC330818:29▼ Dn
2U5059KMIA 232353Z 01003KT 10SM FEW025 SCT048 BKN120 BKN180 OVC250 26/23 A3005 RMK AO2 RAB23E39 SLP175 P0000 60022 T02610233 10311 20239 50003▲ Up
2S5059KMIA▼ Dn
QB001414:56▼ Dn
QA460014:42 136.6▼ Dn
2U3753SEQM 232100Z 01013KT 9999 SCT033 SCT100 19/11 Q1023 NOSIG RMK A3021▲ Up
2S3752SEQM▼ Dn
A33752CLEARED TO KMIA VIA NEGA2A NEGAL UM674 TBG UL465 GCM UG448 IKBIX Y183 PEAKY DVALL CURSO5. SQUAWK .▲ Up
Q03651[LINK ACK]▲ Up
Q03651[LINK TEST]▼ Dn


AIRCRAFT HISTORY
FLIGHT DATE FLIGHT NO. ORIGIN DESTINATION CLEARED ROUTE BLOCK TIME FLIGHT TIME FUEL USED PILOT
2020-07-31CLX8615KIAH ELLX KIAH LURIC ELD MEM IIU EWC SLT KONJE REBBL CFB KODEY RKA CAM ALLEX JOOPY 4950N 5040N 5030N 4920N 4815N ETIKI REGHI BADUR FEJAC UPALO EKRAS GALBO LGL DITAL PIGOP TABOV TSU LEQOS CTL MMD ELLX9.7 hrs9.2 hrs197,640 lbMike Dryden
2020-07-31CLX8615KMIA KIAH KMIA WINCO CHRRI DOLIE REMIS ROZZI NAITE REDFN LEV JEPEG KIAH2.7 hrs2.1 hrs43,199 lbMike Dryden
2020-07-23CLX2348SEQM KMIA SEQM QM021 NEGAL ENSOL TCO TOKUT MILAT TBG ARNAL EMASA GCM ATUVI UCL XOPLI IKBIX PEAKY DVALL KMIA3.9 hrs3.6 hrs73,569 lbMichael Roth